sensor_id;sensor_type;location;lat;lon;timestamp;temperature;humidity
52963;DHT22;38827;53.024;6.596;2024-02-14T00:01:07;7.20;86.20
52963;DHT22;38827;53.024;6.596;2024-02-14T00:03:50;7.20;86.50
52963;DHT22;38827;53.024;6.596;2024-02-14T00:06:19;7.20;86.50
52963;DHT22;38827;53.024;6.596;2024-02-14T00:08:45;7.20;86.80
52963;DHT22;38827;53.024;6.596;2024-02-14T00:11:26;7.20;87.10
52963;DHT22;38827;53.024;6.596;2024-02-14T00:13:57;7.20;87.40
52963;DHT22;38827;53.024;6.596;2024-02-14T00:16:28;7.20;87.40
52963;DHT22;38827;53.024;6.596;2024-02-14T00:19:01;7.20;87.80
52963;DHT22;38827;53.024;6.596;2024-02-14T00:21:28;7.10;87.90
52963;DHT22;38827;53.024;6.596;2024-02-14T00:23:53;7.10;88.10
52963;DHT22;38827;53.024;6.596;2024-02-14T00:26:19;7.10;88.40
52963;DHT22;38827;53.024;6.596;2024-02-14T00:28:45;7.10;88.70
52963;DHT22;38827;53.024;6.596;2024-02-14T00:31:26;7.10;88.60
52963;DHT22;38827;53.024;6.596;2024-02-14T00:36:50;7.10;89.90
52963;DHT22;38827;53.024;6.596;2024-02-14T00:39:16;7.10;89.50
52963;DHT22;38827;53.024;6.596;2024-02-14T00:41:42;7.10;89.90
52963;DHT22;38827;53.024;6.596;2024-02-14T00:44:08;7.10;89.50
52963;DHT22;38827;53.024;6.596;2024-02-14T00:46:39;7.10;90.20
52963;DHT22;38827;53.024;6.596;2024-02-14T00:49:05;7.10;89.70
52963;DHT22;38827;53.024;6.596;2024-02-14T00:51:31;7.10;90.00
52963;DHT22;38827;53.024;6.596;2024-02-14T00:54:03;7.10;90.40
52963;DHT22;38827;53.024;6.596;2024-02-14T00:56:29;7.10;90.50
52963;DHT22;38827;53.024;6.596;2024-02-14T00:58:57;7.10;90.50
52963;DHT22;38827;53.024;6.596;2024-02-14T01:01:32;7.20;90.50
52963;DHT22;38827;53.024;6.596;2024-02-14T01:04:17;7.20;90.50
52963;DHT22;38827;53.024;6.596;2024-02-14T01:06:54;7.20;90.30
52963;DHT22;38827;53.024;6.596;2024-02-14T01:09:20;7.20;90.50
52963;DHT22;38827;53.024;6.596;2024-02-14T01:11:59;7.20;90.70
52963;DHT22;38827;53.024;6.596;2024-02-14T01:14:24;7.30;90.70
52963;DHT22;38827;53.024;6.596;2024-02-14T01:16:59;7.30;90.90
52963;DHT22;38827;53.024;6.596;2024-02-14T01:19:25;7.30;90.90
52963;DHT22;38827;53.024;6.596;2024-02-14T01:21:54;7.30;91.00
52963;DHT22;38827;53.024;6.596;2024-02-14T01:24:20;7.30;91.30
52963;DHT22;38827;53.024;6.596;2024-02-14T01:27:11;7.30;91.50
52963;DHT22;38827;53.024;6.596;2024-02-14T01:29:51;7.30;91.50
52963;DHT22;38827;53.024;6.596;2024-02-14T01:32:17;7.40;91.50
52963;DHT22;38827;53.024;6.596;2024-02-14T01:37:38;7.40;91.80
52963;DHT22;38827;53.024;6.596;2024-02-14T01:40:07;7.40;91.70
52963;DHT22;38827;53.024;6.596;2024-02-14T01:42:52;7.40;91.60
52963;DHT22;38827;53.024;6.596;2024-02-14T01:45:18;7.40;91.50
52963;DHT22;38827;53.024;6.596;2024-02-14T01:47:56;7.50;91.60
52963;DHT22;38827;53.024;6.596;2024-02-14T01:50:22;7.50;91.70
52963;DHT22;38827;53.024;6.596;2024-02-14T01:53:06;7.50;91.90
52963;DHT22;38827;53.024;6.596;2024-02-14T01:55:32;7.50;91.90
52963;DHT22;38827;53.024;6.596;2024-02-14T01:57:59;7.50;92.10
52963;DHT22;38827;53.024;6.596;2024-02-14T02:00:28;7.50;92.00
52963;DHT22;38827;53.024;6.596;2024-02-14T02:03:13;7.60;92.00
52963;DHT22;38827;53.024;6.596;2024-02-14T02:05:46;7.60;92.20
52963;DHT22;38827;53.024;6.596;2024-02-14T02:08:23;7.60;92.20
52963;DHT22;38827;53.024;6.596;2024-02-14T02:10:49;7.70;92.10
52963;DHT22;38827;53.024;6.596;2024-02-14T02:13:18;7.70;92.40
52963;DHT22;38827;53.024;6.596;2024-02-14T02:15:45;7.70;92.20
52963;DHT22;38827;53.024;6.596;2024-02-14T02:18:11;7.70;92.40
52963;DHT22;38827;53.024;6.596;2024-02-14T02:20:37;7.80;92.50
52963;DHT22;38827;53.024;6.596;2024-02-14T02:23:12;7.80;92.50
52963;DHT22;38827;53.024;6.596;2024-02-14T02:25:59;7.80;92.30
52963;DHT22;38827;53.024;6.596;2024-02-14T02:28:25;7.90;92.40
52963;DHT22;38827;53.024;6.596;2024-02-14T02:31:03;7.90;92.60
52963;DHT22;38827;53.024;6.596;2024-02-14T02:33:30;7.90;92.60
52963;DHT22;38827;53.024;6.596;2024-02-14T02:35:56;8.00;92.70
52963;DHT22;38827;53.024;6.596;2024-02-14T02:38:27;8.00;92.60
52963;DHT22;38827;53.024;6.596;2024-02-14T02:41:03;8.00;92.60
52963;DHT22;38827;53.024;6.596;2024-02-14T02:43:50;8.10;92.50
52963;DHT22;38827;53.024;6.596;2024-02-14T02:46:38;8.10;92.60
52963;DHT22;38827;53.024;6.596;2024-02-14T02:49:07;8.10;92.50
52963;DHT22;38827;53.024;6.596;2024-02-14T02:51:37;8.10;92.70
52963;DHT22;38827;53.024;6.596;2024-02-14T02:54:03;8.20;92.80
52963;DHT22;38827;53.024;6.596;2024-02-14T02:56:38;8.20;92.70
52963;DHT22;38827;53.024;6.596;2024-02-14T02:59:04;8.20;92.90
52963;DHT22;38827;53.024;6.596;2024-02-14T03:01:47;8.20;92.90
52963;DHT22;38827;53.024;6.596;2024-02-14T03:04:14;8.20;92.90
52963;DHT22;38827;53.024;6.596;2024-02-14T03:06:40;8.30;93.00
52963;DHT22;38827;53.024;6.596;2024-02-14T03:09:12;8.30;92.90
52963;DHT22;38827;53.024;6.596;2024-02-14T03:11:54;8.30;93.20
52963;DHT22;38827;53.024;6.596;2024-02-14T03:14:22;8.30;93.10
52963;DHT22;38827;53.024;6.596;2024-02-14T03:16:48;8.30;93.20
52963;DHT22;38827;53.024;6.596;2024-02-14T03:19:29;8.40;93.30
52963;DHT22;38827;53.024;6.596;2024-02-14T03:21:56;8.40;93.00
52963;DHT22;38827;53.024;6.596;2024-02-14T03:24:22;8.40;93.50
52963;DHT22;38827;53.024;6.596;2024-02-14T03:26:51;8.40;93.50
52963;DHT22;38827;53.024;6.596;2024-02-14T03:29:21;8.50;93.60
52963;DHT22;38827;53.024;6.596;2024-02-14T03:32:02;8.50;93.20
52963;DHT22;38827;53.024;6.596;2024-02-14T03:38:28;8.50;93.40
52963;DHT22;38827;53.024;6.596;2024-02-14T03:41:09;8.50;93.60
52963;DHT22;38827;53.024;6.596;2024-02-14T03:43:47;8.60;93.50
52963;DHT22;38827;53.024;6.596;2024-02-14T03:46:15;8.60;93.60
52963;DHT22;38827;53.024;6.596;2024-02-14T03:48:58;8.60;93.90
52963;DHT22;38827;53.024;6.596;2024-02-14T03:51:24;8.70;94.20
52963;DHT22;38827;53.024;6.596;2024-02-14T03:53:53;8.70;93.90
52963;DHT22;38827;53.024;6.596;2024-02-14T03:56:18;8.70;94.10
52963;DHT22;38827;53.024;6.596;2024-02-14T03:58:44;8.70;94.00
52963;DHT22;38827;53.024;6.596;2024-02-14T04:01:12;8.80;94.30
52963;DHT22;38827;53.024;6.596;2024-02-14T04:03:39;8.80;94.10
52963;DHT22;38827;53.024;6.596;2024-02-14T04:06:05;8.80;94.10
52963;DHT22;38827;53.024;6.596;2024-02-14T04:08:34;8.90;94.00
52963;DHT22;38827;53.024;6.596;2024-02-14T04:11:01;8.90;94.10
52963;DHT22;38827;53.024;6.596;2024-02-14T04:13:32;8.90;94.10
52963;DHT22;38827;53.024;6.596;2024-02-14T04:16:04;8.90;94.20
52963;DHT22;38827;53.024;6.596;2024-02-14T04:18:49;9.00;94.40
52963;DHT22;38827;53.024;6.596;2024-02-14T04:21:27;9.00;94.10
52963;DHT22;38827;53.024;6.596;2024-02-14T04:23:56;9.00;94.50
52963;DHT22;38827;53.024;6.596;2024-02-14T04:26:25;9.00;94.60
52963;DHT22;38827;53.024;6.596;2024-02-14T04:28:55;9.00;94.50
52963;DHT22;38827;53.024;6.596;2024-02-14T04:31:32;9.10;94.60
52963;DHT22;38827;53.024;6.596;2024-02-14T04:34:09;9.10;94.50
52963;DHT22;38827;53.024;6.596;2024-02-14T04:36:36;9.10;94.40
52963;DHT22;38827;53.024;6.596;2024-02-14T04:39:05;9.10;94.80
52963;DHT22;38827;53.024;6.596;2024-02-14T04:41:40;9.10;94.80
52963;DHT22;38827;53.024;6.596;2024-02-14T04:44:05;9.20;94.80
52963;DHT22;38827;53.024;6.596;2024-02-14T04:46:51;9.20;94.70
52963;DHT22;38827;53.024;6.596;2024-02-14T04:49:17;9.20;94.70
52963;DHT22;38827;53.024;6.596;2024-02-14T04:51:55;9.20;95.00
52963;DHT22;38827;53.024;6.596;2024-02-14T04:54:21;9.30;94.80
52963;DHT22;38827;53.024;6.596;2024-02-14T04:56:49;9.30;95.10
52963;DHT22;38827;53.024;6.596;2024-02-14T04:59:15;9.30;95.00
52963;DHT22;38827;53.024;6.596;2024-02-14T05:01:44;9.30;95.20
52963;DHT22;38827;53.024;6.596;2024-02-14T05:04:19;9.40;95.10
52963;DHT22;38827;53.024;6.596;2024-02-14T05:06:55;9.40;95.00
52963;DHT22;38827;53.024;6.596;2024-02-14T05:09:32;9.40;95.10
52963;DHT22;38827;53.024;6.596;2024-02-14T05:12:01;9.40;95.10
52963;DHT22;38827;53.024;6.596;2024-02-14T05:14:31;9.40;95.30
52963;DHT22;38827;53.024;6.596;2024-02-14T05:16:57;9.50;95.40
52963;DHT22;38827;53.024;6.596;2024-02-14T05:19:25;9.50;95.50
52963;DHT22;38827;53.024;6.596;2024-02-14T05:24:26;9.50;95.50
52963;DHT22;38827;53.024;6.596;2024-02-14T05:26:54;9.50;95.60
52963;DHT22;38827;53.024;6.596;2024-02-14T05:29:20;9.60;95.40
52963;DHT22;38827;53.024;6.596;2024-02-14T05:31:47;9.60;95.50
52963;DHT22;38827;53.024;6.596;2024-02-14T05:34:14;9.60;95.60
52963;DHT22;38827;53.024;6.596;2024-02-14T05:36:40;9.60;95.40
52963;DHT22;38827;53.024;6.596;2024-02-14T05:39:11;9.60;95.60
52963;DHT22;38827;53.024;6.596;2024-02-14T05:41:37;9.60;95.60
52963;DHT22;38827;53.024;6.596;2024-02-14T05:44:04;9.60;95.60
52963;DHT22;38827;53.024;6.596;2024-02-14T05:46:48;9.60;95.60
52963;DHT22;38827;53.024;6.596;2024-02-14T05:49:14;9.60;95.50
52963;DHT22;38827;53.024;6.596;2024-02-14T05:51:40;9.60;95.70
52963;DHT22;38827;53.024;6.596;2024-02-14T05:54:06;9.70;95.90
52963;DHT22;38827;53.024;6.596;2024-02-14T05:56:32;9.70;95.90
52963;DHT22;38827;53.024;6.596;2024-02-14T05:58:57;9.70;95.70
52963;DHT22;38827;53.024;6.596;2024-02-14T06:01:23;9.70;95.60
52963;DHT22;38827;53.024;6.596;2024-02-14T06:04:02;9.70;95.50
52963;DHT22;38827;53.024;6.596;2024-02-14T06:06:28;9.70;95.80
52963;DHT22;38827;53.024;6.596;2024-02-14T06:08:53;9.70;95.80
52963;DHT22;38827;53.024;6.596;2024-02-14T06:11:20;9.70;95.80
52963;DHT22;38827;53.024;6.596;2024-02-14T06:13:49;9.70;96.00
52963;DHT22;38827;53.024;6.596;2024-02-14T06:16:15;9.80;95.90
52963;DHT22;38827;53.024;6.596;2024-02-14T06:18:41;9.80;95.90
52963;DHT22;38827;53.024;6.596;2024-02-14T06:21:13;9.80;95.90
52963;DHT22;38827;53.024;6.596;2024-02-14T06:23:39;9.80;96.10
52963;DHT22;38827;53.024;6.596;2024-02-14T06:26:22;9.80;96.00
52963;DHT22;38827;53.024;6.596;2024-02-14T06:29:00;9.90;96.10
52963;DHT22;38827;53.024;6.596;2024-02-14T06:31:43;9.80;96.20
52963;DHT22;38827;53.024;6.596;2024-02-14T06:34:09;9.80;96.10
52963;DHT22;38827;53.024;6.596;2024-02-14T06:36:39;9.90;96.20
52963;DHT22;38827;53.024;6.596;2024-02-14T06:39:06;9.90;96.40
52963;DHT22;38827;53.024;6.596;2024-02-14T06:41:32;9.90;96.20
52963;DHT22;38827;53.024;6.596;2024-02-14T06:43:58;9.90;96.20
52963;DHT22;38827;53.024;6.596;2024-02-14T06:46:58;9.90;96.30
52963;DHT22;38827;53.024;6.596;2024-02-14T06:49:23;9.90;96.20
52963;DHT22;38827;53.024;6.596;2024-02-14T06:51:58;9.90;96.30
52963;DHT22;38827;53.024;6.596;2024-02-14T06:54:27;9.90;96.30
52963;DHT22;38827;53.024;6.596;2024-02-14T06:57:07;9.90;96.30
52963;DHT22;38827;53.024;6.596;2024-02-14T06:59:33;9.90;96.30
52963;DHT22;38827;53.024;6.596;2024-02-14T07:01:59;10.00;96.40
52963;DHT22;38827;53.024;6.596;2024-02-14T07:04:28;10.00;96.40
52963;DHT22;38827;53.024;6.596;2024-02-14T07:06:56;10.00;96.40
52963;DHT22;38827;53.024;6.596;2024-02-14T07:09:22;10.00;96.60
52963;DHT22;38827;53.024;6.596;2024-02-14T07:11:59;10.00;96.40
52963;DHT22;38827;53.024;6.596;2024-02-14T07:20:11;10.00;96.50
52963;DHT22;38827;53.024;6.596;2024-02-14T07:22:52;10.00;96.30
52963;DHT22;38827;53.024;6.596;2024-02-14T07:25:43;10.00;96.50
52963;DHT22;38827;53.024;6.596;2024-02-14T07:28:10;10.00;96.40
52963;DHT22;38827;53.024;6.596;2024-02-14T07:30:45;10.10;96.70
52963;DHT22;38827;53.024;6.596;2024-02-14T07:33:14;10.10;96.40
52963;DHT22;38827;53.024;6.596;2024-02-14T07:35:42;10.10;96.50
52963;DHT22;38827;53.024;6.596;2024-02-14T07:38:11;10.10;96.40
52963;DHT22;38827;53.024;6.596;2024-02-14T07:41:01;10.10;96.30
52963;DHT22;38827;53.024;6.596;2024-02-14T07:43:30;10.20;96.10
52963;DHT22;38827;53.024;6.596;2024-02-14T07:46:05;10.20;96.40
52963;DHT22;38827;53.024;6.596;2024-02-14T07:48:34;10.20;96.20
52963;DHT22;38827;53.024;6.596;2024-02-14T07:50:59;10.20;96.30
52963;DHT22;38827;53.024;6.596;2024-02-14T07:53:40;10.20;96.30
52963;DHT22;38827;53.024;6.596;2024-02-14T07:56:07;10.20;96.50
52963;DHT22;38827;53.024;6.596;2024-02-14T08:02:36;10.30;96.00
52963;DHT22;38827;53.024;6.596;2024-02-14T08:05:34;10.30;96.20
52963;DHT22;38827;53.024;6.596;2024-02-14T08:08:20;10.40;96.10
52963;DHT22;38827;53.024;6.596;2024-02-14T08:10:59;10.40;95.90
52963;DHT22;38827;53.024;6.596;2024-02-14T08:13:34;10.40;96.00
52963;DHT22;38827;53.024;6.596;2024-02-14T08:16:18;10.40;95.90
52963;DHT22;38827;53.024;6.596;2024-02-14T08:18:59;10.40;95.80
52963;DHT22;38827;53.024;6.596;2024-02-14T08:22:22;10.50;96.00
52963;DHT22;38827;53.024;6.596;2024-02-14T08:24:54;10.50;96.20
52963;DHT22;38827;53.024;6.596;2024-02-14T08:37:55;10.60;95.70
52963;DHT22;38827;53.024;6.596;2024-02-14T08:40:21;10.70;95.50
52963;DHT22;38827;53.024;6.596;2024-02-14T08:42:49;10.70;95.50
52963;DHT22;38827;53.024;6.596;2024-02-14T08:45:36;10.70;95.40
52963;DHT22;38827;53.024;6.596;2024-02-14T08:48:22;10.80;95.20
52963;DHT22;38827;53.024;6.596;2024-02-14T08:50:53;10.80;95.00
52963;DHT22;38827;53.024;6.596;2024-02-14T08:53:21;10.80;95.10
52963;DHT22;38827;53.024;6.596;2024-02-14T08:56:21;10.80;95.00
52963;DHT22;38827;53.024;6.596;2024-02-14T09:01:54;10.90;95.20
52963;DHT22;38827;53.024;6.596;2024-02-14T09:04:23;10.90;95.10
52963;DHT22;38827;53.024;6.596;2024-02-14T09:06:56;10.90;95.10
52963;DHT22;38827;53.024;6.596;2024-02-14T09:09:25;11.00;94.90
52963;DHT22;38827;53.024;6.596;2024-02-14T09:12:06;11.00;94.90
52963;DHT22;38827;53.024;6.596;2024-02-14T09:14:38;11.00;94.80
52963;DHT22;38827;53.024;6.596;2024-02-14T09:17:03;11.00;95.00
52963;DHT22;38827;53.024;6.596;2024-02-14T09:19:32;11.00;95.00
52963;DHT22;38827;53.024;6.596;2024-02-14T09:22:13;11.00;95.00
52963;DHT22;38827;53.024;6.596;2024-02-14T09:24:50;11.00;94.80
52963;DHT22;38827;53.024;6.596;2024-02-14T09:27:16;11.00;95.20
52963;DHT22;38827;53.024;6.596;2024-02-14T09:29:50;11.10;95.10
52963;DHT22;38827;53.024;6.596;2024-02-14T09:32:16;11.10;95.00
52963;DHT22;38827;53.024;6.596;2024-02-14T09:34:47;11.10;95.10
52963;DHT22;38827;53.024;6.596;2024-02-14T09:37:13;11.10;95.10
52963;DHT22;38827;53.024;6.596;2024-02-14T09:39:42;11.20;95.00
52963;DHT22;38827;53.024;6.596;2024-02-14T09:42:16;11.20;95.00
52963;DHT22;38827;53.024;6.596;2024-02-14T09:45:16;11.20;94.90
52963;DHT22;38827;53.024;6.596;2024-02-14T09:47:43;11.20;94.90
52963;DHT22;38827;53.024;6.596;2024-02-14T09:50:27;11.20;95.10
52963;DHT22;38827;53.024;6.596;2024-02-14T09:53:10;11.20;94.90
52963;DHT22;38827;53.024;6.596;2024-02-14T09:55:49;11.20;95.20
52963;DHT22;38827;53.024;6.596;2024-02-14T09:58:17;11.30;94.90
52963;DHT22;38827;53.024;6.596;2024-02-14T10:01:02;11.30;94.90
52963;DHT22;38827;53.024;6.596;2024-02-14T10:03:46;11.20;94.90
52963;DHT22;38827;53.024;6.596;2024-02-14T10:06:11;11.30;94.70
52963;DHT22;38827;53.024;6.596;2024-02-14T10:08:43;11.30;94.90
52963;DHT22;38827;53.024;6.596;2024-02-14T10:11:09;11.30;94.90
52963;DHT22;38827;53.024;6.596;2024-02-14T10:13:54;11.40;94.90
52963;DHT22;38827;53.024;6.596;2024-02-14T10:16:32;11.40;94.90
52963;DHT22;38827;53.024;6.596;2024-02-14T10:18:57;11.40;94.80
52963;DHT22;38827;53.024;6.596;2024-02-14T10:21:35;11.40;94.60
52963;DHT22;38827;53.024;6.596;2024-02-14T10:24:07;11.50;94.50
52963;DHT22;38827;53.024;6.596;2024-02-14T10:26:47;11.50;94.50
52963;DHT22;38827;53.024;6.596;2024-02-14T10:29:23;11.50;94.50
52963;DHT22;38827;53.024;6.596;2024-02-14T10:31:49;11.60;94.50
52963;DHT22;38827;53.024;6.596;2024-02-14T10:34:18;11.60;94.60
52963;DHT22;38827;53.024;6.596;2024-02-14T10:36:49;11.60;94.60
52963;DHT22;38827;53.024;6.596;2024-02-14T10:39:17;11.60;94.50
52963;DHT22;38827;53.024;6.596;2024-02-14T10:41:46;11.60;94.60
52963;DHT22;38827;53.024;6.596;2024-02-14T10:44:12;11.60;94.40
52963;DHT22;38827;53.024;6.596;2024-02-14T10:49:46;11.70;94.50
52963;DHT22;38827;53.024;6.596;2024-02-14T11:28:38;11.80;94.10
52963;DHT22;38827;53.024;6.596;2024-02-14T11:34:56;11.90;93.50
52963;DHT22;38827;53.024;6.596;2024-02-14T12:49:45;12.00;92.50
52963;DHT22;38827;53.024;6.596;2024-02-14T12:52:23;12.00;92.70
52963;DHT22;38827;53.024;6.596;2024-02-14T12:57:30;12.10;92.60
52963;DHT22;38827;53.024;6.596;2024-02-14T13:00:01;12.10;92.50
52963;DHT22;38827;53.024;6.596;2024-02-14T13:03:02;12.10;92.60
52963;DHT22;38827;53.024;6.596;2024-02-14T13:05:32;12.10;92.20
52963;DHT22;38827;53.024;6.596;2024-02-14T13:08:33;12.10;92.70
52963;DHT22;38827;53.024;6.596;2024-02-14T13:11:11;12.00;92.60
52963;DHT22;38827;53.024;6.596;2024-02-14T13:13:42;12.10;92.70
52963;DHT22;38827;53.024;6.596;2024-02-14T13:16:11;12.10;92.80
52963;DHT22;38827;53.024;6.596;2024-02-14T13:18:43;12.10;92.80
52963;DHT22;38827;53.024;6.596;2024-02-14T13:21:09;12.10;92.60
52963;DHT22;38827;53.024;6.596;2024-02-14T13:23:47;12.10;92.50
52963;DHT22;38827;53.024;6.596;2024-02-14T13:26:16;12.10;92.30
52963;DHT22;38827;53.024;6.596;2024-02-14T13:28:41;12.10;92.60
52963;DHT22;38827;53.024;6.596;2024-02-14T13:31:07;12.10;92.50
52963;DHT22;38827;53.024;6.596;2024-02-14T13:33:33;12.10;92.40
52963;DHT22;38827;53.024;6.596;2024-02-14T13:35:58;12.00;92.50
52963;DHT22;38827;53.024;6.596;2024-02-14T13:38:24;12.00;92.50
52963;DHT22;38827;53.024;6.596;2024-02-14T13:40:49;12.00;92.50
52963;DHT22;38827;53.024;6.596;2024-02-14T13:43:15;12.00;92.40
52963;DHT22;38827;53.024;6.596;2024-02-14T13:45:46;12.00;92.60
52963;DHT22;38827;53.024;6.596;2024-02-14T13:48:13;12.00;92.80
52963;DHT22;38827;53.024;6.596;2024-02-14T13:50:39;12.00;92.70
52963;DHT22;38827;53.024;6.596;2024-02-14T13:53:06;11.90;92.80
52963;DHT22;38827;53.024;6.596;2024-02-14T18:55:33;11.60;96.60
52963;DHT22;38827;53.024;6.596;2024-02-14T22:39:03;11.50;97.30
52963;DHT22;38827;53.024;6.596;2024-02-14T22:41:31;11.50;96.90
52963;DHT22;38827;53.024;6.596;2024-02-14T22:43:58;11.40;97.20
52963;DHT22;38827;53.024;6.596;2024-02-14T22:46:36;11.50;97.20
52963;DHT22;38827;53.024;6.596;2024-02-14T22:49:05;11.50;97.20
52963;DHT22;38827;53.024;6.596;2024-02-14T22:51:32;11.50;97.30
52963;DHT22;38827;53.024;6.596;2024-02-14T22:54:02;11.50;97.10
52963;DHT22;38827;53.024;6.596;2024-02-14T22:56:28;11.50;97.20
52963;DHT22;38827;53.024;6.596;2024-02-14T22:58:53;11.50;97.20
52963;DHT22;38827;53.024;6.596;2024-02-14T23:01:21;11.50;97.30
52963;DHT22;38827;53.024;6.596;2024-02-14T23:03:47;11.50;97.30
52963;DHT22;38827;53.024;6.596;2024-02-14T23:06:13;11.60;97.20
52963;DHT22;38827;53.024;6.596;2024-02-14T23:08:39;11.50;97.20
52963;DHT22;38827;53.024;6.596;2024-02-14T23:11:05;11.50;97.30
52963;DHT22;38827;53.024;6.596;2024-02-14T23:13:32;11.50;97.20
52963;DHT22;38827;53.024;6.596;2024-02-14T23:15:57;11.50;97.50
52963;DHT22;38827;53.024;6.596;2024-02-14T23:18:24;11.50;97.40
52963;DHT22;38827;53.024;6.596;2024-02-14T23:20:54;11.50;97.40
52963;DHT22;38827;53.024;6.596;2024-02-14T23:23:20;11.50;97.30
52963;DHT22;38827;53.024;6.596;2024-02-14T23:25:46;11.50;97.40
52963;DHT22;38827;53.024;6.596;2024-02-14T23:28:14;11.50;97.40
52963;DHT22;38827;53.024;6.596;2024-02-14T23:30:40;11.50;97.30
52963;DHT22;38827;53.024;6.596;2024-02-14T23:33:08;11.50;97.40
52963;DHT22;38827;53.024;6.596;2024-02-14T23:35:40;11.50;97.30
52963;DHT22;38827;53.024;6.596;2024-02-14T23:38:08;11.50;97.50
52963;DHT22;38827;53.024;6.596;2024-02-14T23:40:34;11.50;97.50
52963;DHT22;38827;53.024;6.596;2024-02-14T23:43:01;11.50;97.40
52963;DHT22;38827;53.024;6.596;2024-02-14T23:45:29;11.50;97.50
52963;DHT22;38827;53.024;6.596;2024-02-14T23:47:55;11.50;97.60
52963;DHT22;38827;53.024;6.596;2024-02-14T23:50:21;11.50;97.40
52963;DHT22;38827;53.024;6.596;2024-02-14T23:52:47;11.50;97.50
52963;DHT22;38827;53.024;6.596;2024-02-14T23:55:13;11.50;97.40
52963;DHT22;38827;53.024;6.596;2024-02-14T23:57:42;11.50;97.50
